sensor_id;sensor_type;location;lat;lon;timestamp;pressure;altitude;pressure_sealevel;temperature;humidity
62164;BME280;48149;51.132;7.178;2022-09-09T00:02:20;98046.13;;;23.22;100.00
62164;BME280;48149;51.132;7.178;2022-09-09T00:04:58;98047.31;;;22.77;100.00
62164;BME280;48149;51.132;7.178;2022-09-09T00:07:32;98040.66;;;24.27;95.96
62164;BME280;48149;51.132;7.178;2022-09-09T00:14:55;98034.50;;;23.75;99.20
62164;BME280;48149;51.132;7.178;2022-09-09T00:20:29;98031.03;;;23.66;97.89
62164;BME280;48149;51.132;7.178;2022-09-09T00:22:36;98024.72;;;23.62;97.73
62164;BME280;48149;51.132;7.178;2022-09-09T00:25:11;98017.50;;;23.14;100.00
62164;BME280;48149;51.132;7.178;2022-09-09T00:27:44;98010.22;;;23.46;100.00
62164;BME280;48149;51.132;7.178;2022-09-09T00:32:39;98015.00;;;23.18;100.00
62164;BME280;48149;51.132;7.178;2022-09-09T00:37:36;98019.22;;;23.58;96.97
62164;BME280;48149;51.132;7.178;2022-09-09T00:40:04;98016.00;;;23.39;96.56
62164;BME280;48149;51.132;7.178;2022-09-09T00:42:36;98009.97;;;23.16;99.44
62164;BME280;48149;51.132;7.178;2022-09-09T00:45:11;98012.91;;;23.46;97.86
62164;BME280;48149;51.132;7.178;2022-09-09T00:57:52;98011.84;;;23.72;96.00
62164;BME280;48149;51.132;7.178;2022-09-09T01:00:19;98019.53;;;23.74;97.37
62164;BME280;48149;51.132;7.178;2022-09-09T01:05:27;98019.97;;;23.42;97.56
62164;BME280;48149;51.132;7.178;2022-09-09T01:07:56;98010.25;;;23.06;98.41
62164;BME280;48149;51.132;7.178;2022-09-09T01:10:44;98009.91;;;23.08;99.51
62164;BME280;48149;51.132;7.178;2022-09-09T01:13:13;98012.34;;;23.26;97.27
62164;BME280;48149;51.132;7.178;2022-09-09T01:15:41;98010.72;;;23.08;97.11
62164;BME280;48149;51.132;7.178;2022-09-09T01:18:08;98017.81;;;22.82;100.00
62164;BME280;48149;51.132;7.178;2022-09-09T01:28:33;98011.56;;;22.33;100.00
62164;BME280;48149;51.132;7.178;2022-09-09T01:31:00;98011.53;;;22.56;100.00
62164;BME280;48149;51.132;7.178;2022-09-09T01:33:27;98007.72;;;22.48;100.00
62164;BME280;48149;51.132;7.178;2022-09-09T01:35:53;98002.66;;;22.91;100.00
62164;BME280;48149;51.132;7.178;2022-09-09T01:38:20;98005.06;;;23.10;96.58
62164;BME280;48149;51.132;7.178;2022-09-09T01:40:46;98013.06;;;23.41;94.84
62164;BME280;48149;51.132;7.178;2022-09-09T01:43:11;98011.31;;;22.66;99.60
62164;BME280;48149;51.132;7.178;2022-09-09T01:45:38;98019.56;;;22.33;100.00
62164;BME280;48149;51.132;7.178;2022-09-09T01:48:04;98014.59;;;22.18;100.00
62164;BME280;48149;51.132;7.178;2022-09-09T01:50:29;98013.53;;;22.72;100.00
62164;BME280;48149;51.132;7.178;2022-09-09T01:52:56;98021.22;;;22.07;100.00
62164;BME280;48149;51.132;7.178;2022-09-09T01:55:32;98020.25;;;22.25;100.00
62164;BME280;48149;51.132;7.178;2022-09-09T01:58:02;98020.81;;;22.14;100.00
62164;BME280;48149;51.132;7.178;2022-09-09T02:00:34;98020.16;;;22.30;99.77
62164;BME280;48149;51.132;7.178;2022-09-09T02:03:09;98018.28;;;22.31;100.00
62164;BME280;48149;51.132;7.178;2022-09-09T02:08:13;98017.00;;;22.28;100.00
62164;BME280;48149;51.132;7.178;2022-09-09T02:15:57;98013.97;;;21.99;100.00
62164;BME280;48149;51.132;7.178;2022-09-09T02:18:25;98022.38;;;21.79;100.00
62164;BME280;48149;51.132;7.178;2022-09-09T02:20:51;98015.19;;;22.15;100.00
62164;BME280;48149;51.132;7.178;2022-09-09T02:23:18;98018.16;;;21.64;100.00
62164;BME280;48149;51.132;7.178;2022-09-09T02:25:45;98018.34;;;22.40;100.00
62164;BME280;48149;51.132;7.178;2022-09-09T02:28:11;98017.84;;;21.93;100.00
62164;BME280;48149;51.132;7.178;2022-09-09T02:30:38;98026.16;;;21.51;100.00
62164;BME280;48149;51.132;7.178;2022-09-09T02:33:04;98022.81;;;22.30;100.00
62164;BME280;48149;51.132;7.178;2022-09-09T02:35:31;98018.19;;;22.22;100.00
62164;BME280;48149;51.132;7.178;2022-09-09T02:37:58;98022.94;;;22.48;99.84
62164;BME280;48149;51.132;7.178;2022-09-09T02:40:24;98019.31;;;22.21;100.00
62164;BME280;48149;51.132;7.178;2022-09-09T02:42:50;98022.19;;;21.75;100.00
62164;BME280;48149;51.132;7.178;2022-09-09T02:45:18;98020.75;;;21.28;100.00
62164;BME280;48149;51.132;7.178;2022-09-09T02:47:47;98007.25;;;21.39;100.00
62164;BME280;48149;51.132;7.178;2022-09-09T02:53:11;98015.78;;;21.63;100.00
62164;BME280;48149;51.132;7.178;2022-09-09T02:58:08;98012.75;;;22.72;100.00
62164;BME280;48149;51.132;7.178;2022-09-09T03:00:35;98015.03;;;22.65;100.00
62164;BME280;48149;51.132;7.178;2022-09-09T03:03:04;98020.00;;;21.91;100.00
62164;BME280;48149;51.132;7.178;2022-09-09T03:05:30;98016.72;;;21.94;100.00
62164;BME280;48149;51.132;7.178;2022-09-09T03:07:55;98022.69;;;22.13;100.00
62164;BME280;48149;51.132;7.178;2022-09-09T03:10:20;98012.25;;;22.03;100.00
62164;BME280;48149;51.132;7.178;2022-09-09T03:12:45;98017.59;;;22.03;100.00
62164;BME280;48149;51.132;7.178;2022-09-09T03:15:10;98011.19;;;21.41;100.00
62164;BME280;48149;51.132;7.178;2022-09-09T03:17:36;98013.97;;;21.36;100.00
62164;BME280;48149;51.132;7.178;2022-09-09T03:20:02;98004.78;;;22.27;100.00
62164;BME280;48149;51.132;7.178;2022-09-09T03:22:27;98003.78;;;21.88;100.00
62164;BME280;48149;51.132;7.178;2022-09-09T03:24:52;98001.34;;;22.13;100.00
62164;BME280;48149;51.132;7.178;2022-09-09T03:27:18;98004.63;;;22.77;100.00
62164;BME280;48149;51.132;7.178;2022-09-09T03:29:44;98003.31;;;22.66;100.00
62164;BME280;48149;51.132;7.178;2022-09-09T03:32:10;98003.56;;;22.64;100.00
62164;BME280;48149;51.132;7.178;2022-09-09T03:34:35;98005.78;;;22.62;100.00
62164;BME280;48149;51.132;7.178;2022-09-09T03:37:04;98001.59;;;22.48;100.00
62164;BME280;48149;51.132;7.178;2022-09-09T03:39:30;98005.19;;;22.43;100.00
62164;BME280;48149;51.132;7.178;2022-09-09T03:41:55;98000.25;;;22.59;100.00
62164;BME280;48149;51.132;7.178;2022-09-09T03:44:21;98007.44;;;22.72;100.00
62164;BME280;48149;51.132;7.178;2022-09-09T03:46:46;98001.53;;;21.95;100.00
62164;BME280;48149;51.132;7.178;2022-09-09T03:49:11;98007.84;;;22.43;100.00
62164;BME280;48149;51.132;7.178;2022-09-09T03:51:36;98000.88;;;22.33;100.00
62164;BME280;48149;51.132;7.178;2022-09-09T03:54:03;97995.53;;;22.56;100.00
62164;BME280;48149;51.132;7.178;2022-09-09T03:56:32;98004.63;;;22.32;100.00
62164;BME280;48149;51.132;7.178;2022-09-09T03:58:58;98008.22;;;22.28;100.00
62164;BME280;48149;51.132;7.178;2022-09-09T04:01:23;97997.72;;;23.24;99.11
62164;BME280;48149;51.132;7.178;2022-09-09T04:03:48;97995.59;;;22.95;100.00
62164;BME280;48149;51.132;7.178;2022-09-09T04:06:15;98010.88;;;22.50;100.00
62164;BME280;48149;51.132;7.178;2022-09-09T04:08:43;98012.22;;;22.39;100.00
62164;BME280;48149;51.132;7.178;2022-09-09T04:11:09;98003.38;;;22.83;100.00
62164;BME280;48149;51.132;7.178;2022-09-09T04:13:35;98007.19;;;22.15;100.00
62164;BME280;48149;51.132;7.178;2022-09-09T04:16:04;98002.09;;;23.20;100.00
62164;BME280;48149;51.132;7.178;2022-09-09T04:18:30;98003.38;;;22.30;100.00
62164;BME280;48149;51.132;7.178;2022-09-09T04:20:55;98009.41;;;22.22;100.00
62164;BME280;48149;51.132;7.178;2022-09-09T04:23:25;98005.38;;;22.02;100.00
62164;BME280;48149;51.132;7.178;2022-09-09T04:25:52;98006.44;;;22.01;100.00
62164;BME280;48149;51.132;7.178;2022-09-09T04:28:19;98000.97;;;22.06;100.00
62164;BME280;48149;51.132;7.178;2022-09-09T04:30:44;98003.00;;;22.23;100.00
62164;BME280;48149;51.132;7.178;2022-09-09T04:33:10;97999.28;;;22.10;100.00
62164;BME280;48149;51.132;7.178;2022-09-09T04:35:36;98001.50;;;22.30;100.00
62164;BME280;48149;51.132;7.178;2022-09-09T04:38:01;97998.09;;;22.16;100.00
62164;BME280;48149;51.132;7.178;2022-09-09T04:40:28;98006.84;;;21.95;100.00
62164;BME280;48149;51.132;7.178;2022-09-09T04:42:54;98000.25;;;22.81;100.00
62164;BME280;48149;51.132;7.178;2022-09-09T04:45:21;98004.63;;;22.77;100.00
62164;BME280;48149;51.132;7.178;2022-09-09T04:47:46;97998.75;;;22.97;98.87
62164;BME280;48149;51.132;7.178;2022-09-09T04:50:11;97998.88;;;22.39;100.00
62164;BME280;48149;51.132;7.178;2022-09-09T04:52:39;98003.81;;;22.76;100.00
62164;BME280;48149;51.132;7.178;2022-09-09T04:55:05;98004.47;;;22.60;100.00
62164;BME280;48149;51.132;7.178;2022-09-09T04:57:31;98007.19;;;22.15;100.00
62164;BME280;48149;51.132;7.178;2022-09-09T04:59:58;98012.25;;;22.48;100.00
62164;BME280;48149;51.132;7.178;2022-09-09T05:02:30;98008.88;;;22.33;100.00
62164;BME280;48149;51.132;7.178;2022-09-09T05:04:57;98007.28;;;22.55;100.00
62164;BME280;48149;51.132;7.178;2022-09-09T05:07:22;98005.72;;;22.09;100.00
62164;BME280;48149;51.132;7.178;2022-09-09T05:09:48;98007.66;;;22.62;100.00
62164;BME280;48149;51.132;7.178;2022-09-09T05:12:15;98012.34;;;22.56;100.00
62164;BME280;48149;51.132;7.178;2022-09-09T05:14:41;98011.34;;;22.08;100.00
62164;BME280;48149;51.132;7.178;2022-09-09T05:17:07;98010.72;;;22.24;100.00
62164;BME280;48149;51.132;7.178;2022-09-09T05:19:32;98005.19;;;22.21;100.00
62164;BME280;48149;51.132;7.178;2022-09-09T05:21:57;98005.91;;;22.13;100.00
62164;BME280;48149;51.132;7.178;2022-09-09T05:24:22;98012.38;;;22.65;100.00
62164;BME280;48149;51.132;7.178;2022-09-09T05:26:54;98009.50;;;22.08;100.00
62164;BME280;48149;51.132;7.178;2022-09-09T05:29:24;98004.88;;;22.22;100.00
62164;BME280;48149;51.132;7.178;2022-09-09T05:31:50;98005.28;;;22.60;100.00
62164;BME280;48149;51.132;7.178;2022-09-09T05:34:15;98002.56;;;22.74;100.00
62164;BME280;48149;51.132;7.178;2022-09-09T05:36:40;98006.75;;;22.22;100.00
62164;BME280;48149;51.132;7.178;2022-09-09T05:39:05;98009.50;;;22.08;100.00
62164;BME280;48149;51.132;7.178;2022-09-09T05:41:31;98007.84;;;22.21;100.00
62164;BME280;48149;51.132;7.178;2022-09-09T05:43:56;98008.25;;;21.92;100.00
62164;BME280;48149;51.132;7.178;2022-09-09T05:46:23;98010.97;;;22.01;100.00
62164;BME280;48149;51.132;7.178;2022-09-09T05:48:50;98017.75;;;21.71;100.00
62164;BME280;48149;51.132;7.178;2022-09-09T05:51:18;98012.34;;;21.62;100.00
62164;BME280;48149;51.132;7.178;2022-09-09T05:53:44;98029.19;;;20.90;100.00
62164;BME280;48149;51.132;7.178;2022-09-09T05:58:39;98015.78;;;21.63;100.00
62164;BME280;48149;51.132;7.178;2022-09-09T06:01:05;98014.28;;;21.84;100.00
62164;BME280;48149;51.132;7.178;2022-09-09T06:03:32;98012.56;;;21.25;100.00
62164;BME280;48149;51.132;7.178;2022-09-09T06:06:01;98020.63;;;21.74;100.00
62164;BME280;48149;51.132;7.178;2022-09-09T06:08:30;98011.56;;;21.07;100.00
62164;BME280;48149;51.132;7.178;2022-09-09T06:11:00;98023.47;;;20.83;100.00
62164;BME280;48149;51.132;7.178;2022-09-09T06:13:27;98016.06;;;20.93;100.00
62164;BME280;48149;51.132;7.178;2022-09-09T06:15:52;98007.91;;;21.58;100.00
62164;BME280;48149;51.132;7.178;2022-09-09T06:18:18;98016.31;;;21.51;100.00
62164;BME280;48149;51.132;7.178;2022-09-09T06:20:56;98015.47;;;21.92;100.00
62164;BME280;48149;51.132;7.178;2022-09-09T06:23:23;98026.91;;;21.92;100.00
62164;BME280;48149;51.132;7.178;2022-09-09T06:25:48;98014.50;;;22.10;100.00
62164;BME280;48149;51.132;7.178;2022-09-09T06:28:16;98023.34;;;21.97;100.00
62164;BME280;48149;51.132;7.178;2022-09-09T06:30:42;98016.34;;;21.87;100.00
62164;BME280;48149;51.132;7.178;2022-09-09T06:33:07;98026.47;;;22.12;100.00
62164;BME280;48149;51.132;7.178;2022-09-09T06:35:34;98013.13;;;21.63;100.00
62164;BME280;48149;51.132;7.178;2022-09-09T06:37:59;98017.91;;;21.52;100.00
62164;BME280;48149;51.132;7.178;2022-09-09T06:40:25;98025.16;;;21.74;100.00
62164;BME280;48149;51.132;7.178;2022-09-09T06:42:51;98022.03;;;22.30;100.00
62164;BME280;48149;51.132;7.178;2022-09-09T06:45:17;98013.47;;;21.97;100.00
62164;BME280;48149;51.132;7.178;2022-09-09T06:47:42;98019.19;;;21.91;100.00
62164;BME280;48149;51.132;7.178;2022-09-09T06:50:08;98023.72;;;22.26;100.00
62164;BME280;48149;51.132;7.178;2022-09-09T06:52:33;98021.22;;;22.07;100.00
62164;BME280;48149;51.132;7.178;2022-09-09T06:54:58;98030.75;;;22.44;100.00
62164;BME280;48149;51.132;7.178;2022-09-09T06:57:24;98031.78;;;22.34;100.00
62164;BME280;48149;51.132;7.178;2022-09-09T06:59:49;98022.28;;;21.70;100.00
62164;BME280;48149;51.132;7.178;2022-09-09T07:02:16;98022.50;;;21.74;100.00
62164;BME280;48149;51.132;7.178;2022-09-09T07:04:43;98029.59;;;22.14;100.00
62164;BME280;48149;51.132;7.178;2022-09-09T07:07:09;98026.09;;;22.05;100.00
62164;BME280;48149;51.132;7.178;2022-09-09T07:09:37;98027.41;;;22.16;100.00
62164;BME280;48149;51.132;7.178;2022-09-09T07:12:02;98036.69;;;21.83;100.00
62164;BME280;48149;51.132;7.178;2022-09-09T07:14:30;98036.69;;;22.41;100.00
62164;BME280;48149;51.132;7.178;2022-09-09T07:16:55;98033.84;;;22.15;100.00
62164;BME280;48149;51.132;7.178;2022-09-09T07:19:20;98030.16;;;23.00;100.00
62164;BME280;48149;51.132;7.178;2022-09-09T07:21:46;98038.84;;;22.75;100.00
62164;BME280;48149;51.132;7.178;2022-09-09T07:24:12;98032.09;;;22.33;100.00
62164;BME280;48149;51.132;7.178;2022-09-09T07:26:38;98044.88;;;22.45;100.00
62164;BME280;48149;51.132;7.178;2022-09-09T07:29:04;98042.91;;;22.28;100.00
62164;BME280;48149;51.132;7.178;2022-09-09T07:31:31;98046.47;;;22.68;100.00
62164;BME280;48149;51.132;7.178;2022-09-09T07:33:57;98047.38;;;23.25;100.00
62164;BME280;48149;51.132;7.178;2022-09-09T07:36:28;98053.06;;;22.70;100.00
62164;BME280;48149;51.132;7.178;2022-09-09T07:38:57;98044.31;;;23.40;100.00
62164;BME280;48149;51.132;7.178;2022-09-09T07:41:28;98051.59;;;22.64;100.00
62164;BME280;48149;51.132;7.178;2022-09-09T07:43:53;98047.66;;;23.54;98.86
62164;BME280;48149;51.132;7.178;2022-09-09T07:46:19;98058.34;;;22.62;99.91
62164;BME280;48149;51.132;7.178;2022-09-09T07:48:45;98050.81;;;22.42;100.00
62164;BME280;48149;51.132;7.178;2022-09-09T07:51:13;98050.97;;;23.20;100.00
62164;BME280;48149;51.132;7.178;2022-09-09T07:53:42;98063.13;;;23.04;97.96
62164;BME280;48149;51.132;7.178;2022-09-09T07:56:09;98057.72;;;23.18;99.48
62164;BME280;48149;51.132;7.178;2022-09-09T07:58:36;98062.13;;;22.92;96.56
62164;BME280;48149;51.132;7.178;2022-09-09T08:01:13;98059.53;;;24.05;95.45
62164;BME280;48149;51.132;7.178;2022-09-09T08:03:41;98066.72;;;23.70;90.05
62164;BME280;48149;51.132;7.178;2022-09-09T08:06:07;98074.72;;;22.91;96.67
62164;BME280;48149;51.132;7.178;2022-09-09T08:08:33;98065.00;;;23.26;95.43
62164;BME280;48149;51.132;7.178;2022-09-09T08:11:06;98072.53;;;22.93;93.64
62164;BME280;48149;51.132;7.178;2022-09-09T08:13:33;98064.63;;;23.58;93.29
62164;BME280;48149;51.132;7.178;2022-09-09T08:16:08;98061.38;;;23.30;93.13
62164;BME280;48149;51.132;7.178;2022-09-09T08:18:34;98064.72;;;24.53;88.21
62164;BME280;48149;51.132;7.178;2022-09-09T08:21:10;98061.63;;;23.51;92.58
62164;BME280;48149;51.132;7.178;2022-09-09T08:23:42;98061.75;;;24.28;85.54
62164;BME280;48149;51.132;7.178;2022-09-09T08:26:16;98059.09;;;24.28;87.22
62164;BME280;48149;51.132;7.178;2022-09-09T08:28:42;98064.69;;;24.78;86.52
62164;BME280;48149;51.132;7.178;2022-09-09T08:31:15;98062.84;;;24.27;86.62
62164;BME280;48149;51.132;7.178;2022-09-09T08:33:41;98053.78;;;23.15;88.38
62164;BME280;48149;51.132;7.178;2022-09-09T08:36:08;98053.97;;;23.27;85.75
62164;BME280;48149;51.132;7.178;2022-09-09T08:38:34;98064.91;;;23.40;86.10
62164;BME280;48149;51.132;7.178;2022-09-09T08:44:28;98058.94;;;24.16;84.69
62164;BME280;48149;51.132;7.178;2022-09-09T08:49:48;98058.78;;;24.13;84.80
62164;BME280;48149;51.132;7.178;2022-09-09T08:52:17;98060.50;;;24.34;84.09
62164;BME280;48149;51.132;7.178;2022-09-09T08:54:44;98063.13;;;24.00;82.50
62164;BME280;48149;51.132;7.178;2022-09-09T08:57:43;98061.63;;;25.14;80.22
62164;BME280;48149;51.132;7.178;2022-09-09T09:00:02;98070.84;;;24.02;81.45
62164;BME280;48149;51.132;7.178;2022-09-09T09:12:50;98076.69;;;24.12;75.14
62164;BME280;48149;51.132;7.178;2022-09-09T09:15:23;98081.13;;;24.51;75.15
62164;BME280;48149;51.132;7.178;2022-09-09T09:17:48;98074.16;;;24.59;70.94
62164;BME280;48149;51.132;7.178;2022-09-09T09:20:15;98075.72;;;24.08;75.63
62164;BME280;48149;51.132;7.178;2022-09-09T09:22:47;98076.19;;;24.87;70.42
62164;BME280;48149;51.132;7.178;2022-09-09T09:25:23;98075.13;;;24.11;72.32
62164;BME280;48149;51.132;7.178;2022-09-09T09:28:00;98071.66;;;24.36;72.13
62164;BME280;48149;51.132;7.178;2022-09-09T09:30:28;98073.72;;;24.31;70.57
62164;BME280;48149;51.132;7.178;2022-09-09T09:35:20;98081.75;;;26.37;64.96
62164;BME280;48149;51.132;7.178;2022-09-09T09:37:45;98075.22;;;27.73;59.26
62164;BME280;48149;51.132;7.178;2022-09-09T09:40:18;98076.22;;;27.69;56.10
62164;BME280;48149;51.132;7.178;2022-09-09T09:47:44;98074.59;;;24.78;65.66
62164;BME280;48149;51.132;7.178;2022-09-09T09:50:16;98078.28;;;24.30;69.11
62164;BME280;48149;51.132;7.178;2022-09-09T09:52:51;98073.56;;;24.27;68.19
62164;BME280;48149;51.132;7.178;2022-09-09T09:55:18;98073.56;;;24.27;66.67
62164;BME280;48149;51.132;7.178;2022-09-09T09:57:43;98080.78;;;24.10;68.05
62164;BME280;48149;51.132;7.178;2022-09-09T10:00:16;98074.63;;;24.09;68.33
62164;BME280;48149;51.132;7.178;2022-09-09T10:02:43;98077.44;;;24.99;64.03
62164;BME280;48149;51.132;7.178;2022-09-09T10:05:22;98088.63;;;23.98;67.64
62164;BME280;48149;51.132;7.178;2022-09-09T10:08:04;98077.97;;;24.23;67.84
62164;BME280;48149;51.132;7.178;2022-09-09T10:14:02;98077.66;;;24.42;67.95
62164;BME280;48149;51.132;7.178;2022-09-09T10:18:59;98075.66;;;25.11;64.67
62164;BME280;48149;51.132;7.178;2022-09-09T10:26:51;98084.22;;;26.42;58.13
62164;BME280;48149;51.132;7.178;2022-09-09T10:29:24;98083.78;;;26.20;59.82
62164;BME280;48149;51.132;7.178;2022-09-09T10:32:02;98080.00;;;24.61;64.82
62164;BME280;48149;51.132;7.178;2022-09-09T10:37:27;98072.06;;;26.78;60.41
62164;BME280;48149;51.132;7.178;2022-09-09T10:42:40;98071.06;;;25.58;61.19
62164;BME280;48149;51.132;7.178;2022-09-09T10:50:14;98059.19;;;24.75;65.42
62164;BME280;48149;51.132;7.178;2022-09-09T10:53:00;98062.97;;;24.91;64.13
62164;BME280;48149;51.132;7.178;2022-09-09T10:55:39;98081.69;;;24.91;65.39
62164;BME280;48149;51.132;7.178;2022-09-09T10:58:10;98068.69;;;25.86;61.50
62164;BME280;48149;51.132;7.178;2022-09-09T11:03:02;98066.25;;;25.34;61.33
62164;BME280;48149;51.132;7.178;2022-09-09T11:13:13;98054.06;;;25.45;63.01
62164;BME280;48149;51.132;7.178;2022-09-09T11:15:46;98053.28;;;25.45;61.09
62164;BME280;48149;51.132;7.178;2022-09-09T11:18:21;98065.72;;;26.82;57.88
62164;BME280;48149;51.132;7.178;2022-09-09T11:20:51;98052.69;;;29.48;48.08
62164;BME280;48149;51.132;7.178;2022-09-09T11:24:06;98051.66;;;28.34;50.54
62164;BME280;48149;51.132;7.178;2022-09-09T11:26:06;98045.81;;;31.72;43.60
62164;BME280;48149;51.132;7.178;2022-09-09T11:36:29;98039.63;;;28.87;47.41
62164;BME280;48149;51.132;7.178;2022-09-09T11:41:44;98048.06;;;27.06;52.42
62164;BME280;48149;51.132;7.178;2022-09-09T11:44:10;98044.63;;;26.39;54.01
62164;BME280;48149;51.132;7.178;2022-09-09T11:46:38;98040.00;;;26.28;55.46
62164;BME280;48149;51.132;7.178;2022-09-09T11:49:05;98031.09;;;26.15;56.91
62164;BME280;48149;51.132;7.178;2022-09-09T11:51:32;98035.94;;;25.51;59.57
62164;BME280;48149;51.132;7.178;2022-09-09T11:53:59;98040.63;;;26.04;58.34
62164;BME280;48149;51.132;7.178;2022-09-09T11:56:44;98034.00;;;25.60;59.12
62164;BME280;48149;51.132;7.178;2022-09-09T12:07:03;98048.09;;;26.73;55.39
62164;BME280;48149;51.132;7.178;2022-09-09T12:09:35;98058.78;;;26.28;55.95
62164;BME280;48149;51.132;7.178;2022-09-09T12:12:21;98046.91;;;26.29;53.82
62164;BME280;48149;51.132;7.178;2022-09-09T12:17:23;98044.63;;;25.98;54.05
62164;BME280;48149;51.132;7.178;2022-09-09T12:20:00;98054.97;;;25.20;58.69
62164;BME280;48149;51.132;7.178;2022-09-09T12:25:44;98042.34;;;25.29;58.27
62164;BME280;48149;51.132;7.178;2022-09-09T12:27:55;98035.50;;;25.03;59.18
62164;BME280;48149;51.132;7.178;2022-09-09T12:30:24;98056.38;;;24.63;60.05
62164;BME280;48149;51.132;7.178;2022-09-09T12:33:08;98039.72;;;24.57;60.50
62164;BME280;48149;51.132;7.178;2022-09-09T12:35:35;98043.59;;;24.77;60.62
62164;BME280;48149;51.132;7.178;2022-09-09T12:38:03;98031.53;;;24.36;60.91
62164;BME280;48149;51.132;7.178;2022-09-09T12:40:32;98040.66;;;25.16;59.88
62164;BME280;48149;51.132;7.178;2022-09-09T12:43:00;98038.78;;;25.46;58.76
62164;BME280;48149;51.132;7.178;2022-09-09T12:45:26;98037.56;;;24.97;59.23
62164;BME280;48149;51.132;7.178;2022-09-09T12:47:57;98040.47;;;24.83;60.03
62164;BME280;48149;51.132;7.178;2022-09-09T12:50:27;98031.75;;;25.33;57.87
62164;BME280;48149;51.132;7.178;2022-09-09T12:52:54;98028.56;;;25.39;57.91
62164;BME280;48149;51.132;7.178;2022-09-09T12:55:25;98026.00;;;25.52;58.07
62164;BME280;48149;51.132;7.178;2022-09-09T12:57:52;98027.44;;;25.49;57.24
62164;BME280;48149;51.132;7.178;2022-09-09T13:00:19;98018.25;;;25.59;57.73
62164;BME280;48149;51.132;7.178;2022-09-09T13:03:03;98017.81;;;25.77;56.59
62164;BME280;48149;51.132;7.178;2022-09-09T13:05:39;98012.88;;;25.29;58.02
62164;BME280;48149;51.132;7.178;2022-09-09T13:08:05;98017.03;;;25.77;57.29
62164;BME280;48149;51.132;7.178;2022-09-09T13:11:17;98014.06;;;25.49;58.81
62164;BME280;48149;51.132;7.178;2022-09-09T13:13:23;98007.28;;;23.99;62.90
62164;BME280;48149;51.132;7.178;2022-09-09T13:15:54;98020.41;;;24.17;61.71
62164;BME280;48149;51.132;7.178;2022-09-09T13:18:21;98031.00;;;24.69;62.22
62164;BME280;48149;51.132;7.178;2022-09-09T13:20:49;98029.41;;;23.08;79.89
62164;BME280;48149;51.132;7.178;2022-09-09T13:23:15;98060.53;;;21.88;95.50
62164;BME280;48149;51.132;7.178;2022-09-09T13:25:42;98048.66;;;22.21;94.32
62164;BME280;48149;51.132;7.178;2022-09-09T13:28:20;98048.09;;;23.08;91.05
62164;BME280;48149;51.132;7.178;2022-09-09T13:30:54;98041.72;;;22.87;98.04
62164;BME280;48149;51.132;7.178;2022-09-09T13:33:21;98035.47;;;24.48;90.64
62164;BME280;48149;51.132;7.178;2022-09-09T13:35:53;98034.66;;;25.19;80.23
62164;BME280;48149;51.132;7.178;2022-09-09T13:38:19;98035.84;;;25.89;78.86
62164;BME280;48149;51.132;7.178;2022-09-09T13:41:01;98024.25;;;25.56;78.94
62164;BME280;48149;51.132;7.178;2022-09-09T13:43:42;98027.25;;;25.16;79.99
62164;BME280;48149;51.132;7.178;2022-09-09T13:48:55;98026.13;;;24.79;84.13
62164;BME280;48149;51.132;7.178;2022-09-09T13:51:25;98029.47;;;24.51;87.56
62164;BME280;48149;51.132;7.178;2022-09-09T13:53:52;98018.94;;;24.03;87.13
62164;BME280;48149;51.132;7.178;2022-09-09T13:56:18;98018.63;;;23.78;89.82
62164;BME280;48149;51.132;7.178;2022-09-09T13:58:43;98020.53;;;23.95;91.31
62164;BME280;48149;51.132;7.178;2022-09-09T14:01:08;98015.66;;;23.97;90.03
62164;BME280;48149;51.132;7.178;2022-09-09T14:03:35;98023.53;;;24.11;91.66
62164;BME280;48149;51.132;7.178;2022-09-09T14:06:00;98037.50;;;23.25;100.00
62164;BME280;48149;51.132;7.178;2022-09-09T14:08:26;98043.66;;;22.28;100.00
62164;BME280;48149;51.132;7.178;2022-09-09T14:10:54;98032.25;;;46.32;100.00
62164;BME280;48149;51.132;7.178;2022-09-09T14:13:20;98011.75;;;28.24;75.62
62164;BME280;48149;51.132;7.178;2022-09-09T14:15:47;98007.56;;;27.59;81.86
62164;BME280;48149;51.132;7.178;2022-09-09T14:18:12;97995.25;;;27.22;81.27
62164;BME280;48149;51.132;7.178;2022-09-09T14:20:38;97986.63;;;27.28;82.36
62164;BME280;48149;51.132;7.178;2022-09-09T14:23:04;98001.53;;;27.50;83.22
62164;BME280;48149;51.132;7.178;2022-09-09T14:25:31;98001.41;;;27.46;85.57
62164;BME280;48149;51.132;7.178;2022-09-09T14:27:56;97991.28;;;29.41;76.86
62164;BME280;48149;51.132;7.178;2022-09-09T14:30:21;97991.88;;;28.13;78.84
62164;BME280;48149;51.132;7.178;2022-09-09T14:32:47;97996.47;;;27.12;85.74
62164;BME280;48149;51.132;7.178;2022-09-09T14:35:12;97998.06;;;28.29;79.99
62164;BME280;48149;51.132;7.178;2022-09-09T14:37:38;98001.00;;;27.84;79.55
62164;BME280;48149;51.132;7.178;2022-09-09T14:40:04;98015.72;;;27.63;81.18
62164;BME280;48149;51.132;7.178;2022-09-09T14:42:29;98029.19;;;26.69;84.38
62164;BME280;48149;51.132;7.178;2022-09-09T14:44:55;98043.38;;;26.70;87.46
62164;BME280;48149;51.132;7.178;2022-09-09T14:47:20;98035.19;;;25.04;94.76
62164;BME280;48149;51.132;7.178;2022-09-09T14:49:48;98038.41;;;25.27;93.87
62164;BME280;48149;51.132;7.178;2022-09-09T14:52:15;98034.34;;;23.88;100.00
62164;BME280;48149;51.132;7.178;2022-09-09T14:54:43;98042.91;;;28.37;81.72
62164;BME280;48149;51.132;7.178;2022-09-09T14:57:08;98027.84;;;24.75;97.38
62164;BME280;48149;51.132;7.178;2022-09-09T14:59:33;98021.31;;;25.69;92.37
62164;BME280;48149;51.132;7.178;2022-09-09T15:01:59;98024.91;;;25.44;93.42
62164;BME280;48149;51.132;7.178;2022-09-09T15:04:30;98024.13;;;25.43;91.33
62164;BME280;48149;51.132;7.178;2022-09-09T15:06:57;98031.06;;;23.92;100.00
62164;BME280;48149;51.132;7.178;2022-09-09T15:09:23;98031.53;;;24.11;100.00
62164;BME280;48149;51.132;7.178;2022-09-09T15:11:48;98042.19;;;23.76;100.00
62164;BME280;48149;51.132;7.178;2022-09-09T15:14:13;98038.44;;;24.46;100.00